createdAt,value
2022-12-11T00:01:21.847Z,83.71
2022-12-11T00:03:50.522Z,83.60
2022-12-11T00:06:22.066Z,83.75
2022-12-11T00:08:54.562Z,83.95
2022-12-11T00:11:24.060Z,83.36
2022-12-11T00:13:52.523Z,83.62
2022-12-11T00:16:26.551Z,84.13
2022-12-11T00:18:55.501Z,84.05
2022-12-11T00:21:24.061Z,84.71
2022-12-11T00:23:53.852Z,84.45
2022-12-11T00:26:22.366Z,84.67
2022-12-11T00:28:54.184Z,84.55
2022-12-11T00:31:23.344Z,85.09
2022-12-11T00:33:52.362Z,84.19
2022-12-11T00:36:22.563Z,83.20
2022-12-11T00:38:51.439Z,83.67
2022-12-11T00:41:21.789Z,83.42
2022-12-11T00:43:50.366Z,83.42
2022-12-11T00:46:19.368Z,84.01
2022-12-11T00:48:49.836Z,83.48
2022-12-11T00:51:18.308Z,84.31
2022-12-11T00:53:46.740Z,84.63
2022-12-11T00:56:17.940Z,84.41
2022-12-11T00:58:48.546Z,83.97
2022-12-11T01:01:19.229Z,83.53
2022-12-11T01:03:48.110Z,83.46
2022-12-11T01:06:18.375Z,83.06
2022-12-11T01:08:47.356Z,82.60
2022-12-11T01:11:16.515Z,83.17
2022-12-11T01:13:46.316Z,83.18
2022-12-11T01:16:16.889Z,83.13
2022-12-11T01:18:45.531Z,82.70
2022-12-11T01:21:15.112Z,82.17
2022-12-11T01:23:43.545Z,82.02
2022-12-11T01:26:15.080Z,81.85
2022-12-11T01:28:44.158Z,82.38
2022-12-11T01:31:13.576Z,82.37
2022-12-11T01:33:43.808Z,82.40
2022-12-11T01:36:14.547Z,81.70
2022-12-11T01:38:43.364Z,82.47
2022-12-11T01:41:12.532Z,81.93
2022-12-11T01:44:01.673Z,81.84
2022-12-11T01:46:32.085Z,82.20
2022-12-11T01:49:02.745Z,82.26
2022-12-11T01:51:34.232Z,82.57
2022-12-11T01:54:08.628Z,81.48
2022-12-11T01:56:38.980Z,81.54
2022-12-11T01:59:08.886Z,81.83
2022-12-11T02:01:42.247Z,81.05
2022-12-11T02:04:13.367Z,80.46
2022-12-11T02:06:44.009Z,81.49
2022-12-11T02:09:15.164Z,79.82
2022-12-11T02:11:53.654Z,80.54
2022-12-11T02:14:33.566Z,81.50
2022-12-11T02:17:07.824Z,80.21
2022-12-11T02:20:03.227Z,79.89
2022-12-11T02:22:45.814Z,80.00
2022-12-11T02:25:21.826Z,79.25
2022-12-11T02:27:56.643Z,79.46
2022-12-11T02:30:26.689Z,79.24
2022-12-11T02:32:57.497Z,79.68
2022-12-11T02:35:31.563Z,80.75
2022-12-11T02:38:03.796Z,79.81
2022-12-11T02:40:36.467Z,77.63
2022-12-11T02:43:08.879Z,77.44
2022-12-11T02:45:41.325Z,77.69
2022-12-11T02:48:12.895Z,77.27
2022-12-11T02:50:46.856Z,76.93
2022-12-11T02:53:21.506Z,77.38
2022-12-11T02:55:55.319Z,77.10
2022-12-11T02:58:27.760Z,76.68
2022-12-11T03:00:58.173Z,75.99
2022-12-11T03:03:26.809Z,76.43
2022-12-11T03:05:55.263Z,76.72
2022-12-11T03:08:23.707Z,75.32
2022-12-11T03:10:52.258Z,75.61
2022-12-11T03:13:22.431Z,75.21
2022-12-11T03:16:04.834Z,75.10
2022-12-11T03:18:40.498Z,75.16
2022-12-11T03:21:13.987Z,76.14
2022-12-11T03:23:48.910Z,75.68
2022-12-11T03:26:19.773Z,75.86
2022-12-11T03:28:52.084Z,74.97
2022-12-11T03:31:27.132Z,75.09
2022-12-11T03:33:59.695Z,75.52
2022-12-11T03:36:33.025Z,75.59
2022-12-11T03:39:06.839Z,75.29
2022-12-11T03:41:38.751Z,74.60
2022-12-11T03:44:08.119Z,74.89
2022-12-11T03:46:40.922Z,73.77
2022-12-11T03:49:16.466Z,74.78
2022-12-11T03:51:46.881Z,75.42
2022-12-11T03:54:15.487Z,75.76
2022-12-11T03:56:46.582Z,76.21
2022-12-11T03:59:15.278Z,76.70
2022-12-11T04:01:45.194Z,77.21
2022-12-11T04:04:14.136Z,77.17
2022-12-11T04:06:42.696Z,77.64
2022-12-11T04:09:11.163Z,78.61
2022-12-11T04:11:39.685Z,78.17
2022-12-11T04:14:27.680Z,78.51
2022-12-11T04:16:58.225Z,78.51
2022-12-11T04:19:45.200Z,79.32
2022-12-11T04:22:29.602Z,79.41
2022-12-11T04:24:58.093Z,79.82
2022-12-11T04:27:46.661Z,79.45
2022-12-11T04:30:18.540Z,79.54
2022-12-11T04:32:48.709Z,80.03
2022-12-11T04:35:17.883Z,80.15
2022-12-11T04:37:46.801Z,80.41
2022-12-11T04:40:18.141Z,81.09
2022-12-11T04:42:47.112Z,79.90
2022-12-11T04:45:15.888Z,80.53
2022-12-11T04:47:44.291Z,81.49
2022-12-11T04:50:15.346Z,81.77
2022-12-11T04:52:44.153Z,81.00
2022-12-11T04:55:13.738Z,81.55
2022-12-11T04:57:42.514Z,81.68
2022-12-11T05:00:12.833Z,80.86
2022-12-11T05:02:43.109Z,81.46
2022-12-11T05:05:12.372Z,81.28
2022-12-11T05:07:42.477Z,81.71
2022-12-11T05:10:11.265Z,80.74
2022-12-11T05:12:39.712Z,81.45
2022-12-11T05:15:09.468Z,81.90
2022-12-11T05:17:38.243Z,81.52
2022-12-11T05:20:07.828Z,81.23
2022-12-11T05:22:36.532Z,81.27
2022-12-11T05:25:07.994Z,80.58
2022-12-11T05:27:36.636Z,81.74
2022-12-11T05:30:05.983Z,81.08
2022-12-11T05:32:34.528Z,81.39
2022-12-11T05:35:03.698Z,79.90
2022-12-11T05:37:34.031Z,80.26
2022-12-11T05:40:02.927Z,80.93
2022-12-11T05:42:32.805Z,80.55
2022-12-11T05:45:01.399Z,79.97
2022-12-11T05:47:29.900Z,79.21
2022-12-11T05:49:58.401Z,80.48
2022-12-11T05:52:27.377Z,79.83
2022-12-11T05:54:55.878Z,79.46
2022-12-11T05:57:24.494Z,78.99
2022-12-11T05:59:54.354Z,78.59
2022-12-11T06:02:22.992Z,78.89
2022-12-11T06:04:51.553Z,78.71
2022-12-11T06:07:20.110Z,79.01
2022-12-11T06:09:48.563Z,79.49
2022-12-11T06:12:17.127Z,78.80
2022-12-11T06:14:45.903Z,78.32
2022-12-11T06:17:15.716Z,77.98
2022-12-11T06:19:44.247Z,77.96
2022-12-11T06:22:12.663Z,78.63
2022-12-11T06:24:41.151Z,79.45
2022-12-11T06:27:10.179Z,79.54
2022-12-11T06:29:38.650Z,79.79
2022-12-11T06:32:07.141Z,79.22
2022-12-11T06:34:37.021Z,80.43
2022-12-11T06:37:05.513Z,79.40
2022-12-11T06:39:34.024Z,79.63
2022-12-11T06:42:02.622Z,79.57
2022-12-11T06:44:31.036Z,79.50
2022-12-11T06:46:59.765Z,79.97
2022-12-11T06:49:28.319Z,80.54
2022-12-11T06:51:58.477Z,80.22
2022-12-11T06:54:27.880Z,80.18
2022-12-11T06:56:56.297Z,80.42
2022-12-11T06:59:24.783Z,81.23
2022-12-11T07:01:53.262Z,80.56
2022-12-11T07:04:24.605Z,80.50
2022-12-11T07:06:53.301Z,81.90
2022-12-11T07:09:23.879Z,80.64
2022-12-11T07:11:53.223Z,82.22
2022-12-11T07:14:21.852Z,81.57
2022-12-11T07:16:50.612Z,82.29
2022-12-11T07:19:19.498Z,83.00
2022-12-11T07:21:48.056Z,82.94
2022-12-11T07:24:16.771Z,82.63
2022-12-11T07:26:46.867Z,82.79
2022-12-11T07:29:15.399Z,83.61
2022-12-11T07:31:43.955Z,82.32
2022-12-11T07:34:13.915Z,83.77
2022-12-11T07:36:42.736Z,82.17
2022-12-11T07:39:12.496Z,82.90
2022-12-11T07:41:41.121Z,82.70
2022-12-11T07:44:13.901Z,81.95
2022-12-11T07:46:42.617Z,83.19
2022-12-11T07:49:11.098Z,82.71
2022-12-11T07:51:40.158Z,82.44
2022-12-11T07:54:16.331Z,82.04
2022-12-11T07:56:49.780Z,82.13
2022-12-11T07:59:22.715Z,82.97
2022-12-11T08:01:51.148Z,82.05
2022-12-11T08:04:19.631Z,81.84
2022-12-11T08:06:48.099Z,82.62
2022-12-11T08:09:20.898Z,81.84
2022-12-11T08:11:50.975Z,80.63
2022-12-11T08:14:19.622Z,81.32
2022-12-11T08:16:50.110Z,81.08
2022-12-11T08:19:18.980Z,80.68
2022-12-11T08:21:47.824Z,80.90
2022-12-11T08:24:20.166Z,82.50
2022-12-11T08:26:48.882Z,80.46
2022-12-11T08:29:17.335Z,80.68
2022-12-11T08:31:46.102Z,81.02
2022-12-11T08:34:16.006Z,80.77
2022-12-11T08:36:44.853Z,81.28
2022-12-11T08:39:13.327Z,80.05
2022-12-11T08:41:41.960Z,80.62
2022-12-11T08:44:16.742Z,80.20
2022-12-11T08:46:45.536Z,80.18
2022-12-11T08:49:14.047Z,79.58
2022-12-11T08:51:43.972Z,78.94
2022-12-11T08:54:12.770Z,79.27
2022-12-11T08:56:41.287Z,79.59
2022-12-11T08:59:09.790Z,79.38
2022-12-11T09:01:38.482Z,79.10
2022-12-11T09:04:06.959Z,79.35
2022-12-11T09:06:35.619Z,78.24
2022-12-11T09:09:06.018Z,78.11
2022-12-11T09:11:36.197Z,77.88
2022-12-11T09:14:08.008Z,78.11
2022-12-11T09:16:40.131Z,77.96
2022-12-11T09:19:10.025Z,77.08
2022-12-11T09:21:38.535Z,76.78
2022-12-11T09:24:11.139Z,76.17
2022-12-11T09:26:40.478Z,76.11
2022-12-11T09:29:10.207Z,77.27
2022-12-11T09:31:38.755Z,76.49
2022-12-11T09:34:09.689Z,75.88
2022-12-11T09:36:39.404Z,75.44
2022-12-11T09:39:10.108Z,74.43
2022-12-11T09:41:40.829Z,74.65
2022-12-11T09:44:29.696Z,75.11
2022-12-11T09:46:59.407Z,74.42
2022-12-11T09:49:35.162Z,73.27
2022-12-11T09:52:10.969Z,73.16
2022-12-11T09:54:48.362Z,73.42
2022-12-11T09:57:28.586Z,73.44
2022-12-11T10:00:15.021Z,73.19
2022-12-11T10:03:11.736Z,73.27
2022-12-11T10:05:48.345Z,74.12
2022-12-11T10:08:18.996Z,74.64
2022-12-11T10:10:56.920Z,75.57
2022-12-11T10:13:40.994Z,75.66
2022-12-11T10:16:17.730Z,76.24
2022-12-11T10:18:46.292Z,75.99
2022-12-11T10:21:17.401Z,76.88
2022-12-11T10:23:51.877Z,76.82
2022-12-11T10:26:23.833Z,77.56
2022-12-11T10:28:52.502Z,77.53
2022-12-11T10:31:30.762Z,78.07
2022-12-11T10:34:03.399Z,77.18
2022-12-11T10:36:35.702Z,76.36
2022-12-11T10:39:05.239Z,77.22
2022-12-11T10:41:39.617Z,75.63
2022-12-11T10:44:19.297Z,75.11
2022-12-11T10:46:48.211Z,74.64
2022-12-11T10:49:26.120Z,74.72
2022-12-11T10:51:56.142Z,74.01
2022-12-11T10:54:33.257Z,72.89
2022-12-11T10:57:04.679Z,73.95
2022-12-11T10:59:38.430Z,73.62
2022-12-11T11:02:16.938Z,73.06
2022-12-11T11:04:46.322Z,72.69
2022-12-11T11:07:19.732Z,73.06
2022-12-11T11:09:48.650Z,73.77
2022-12-11T11:12:24.569Z,73.57
2022-12-11T11:15:04.148Z,73.96
2022-12-11T11:17:35.053Z,74.23
2022-12-11T11:20:14.128Z,73.55
2022-12-11T11:22:46.804Z,71.45
2022-12-11T11:25:21.272Z,72.26
2022-12-11T11:27:53.858Z,73.30
2022-12-11T11:30:24.311Z,74.79
2022-12-11T11:32:55.884Z,73.27
2022-12-11T11:35:26.950Z,73.76
2022-12-11T11:38:01.650Z,72.16
2022-12-11T11:40:32.181Z,72.85
2022-12-11T11:43:08.793Z,72.29
2022-12-11T11:45:44.225Z,73.32
2022-12-11T11:48:25.730Z,74.40
2022-12-11T11:50:57.275Z,74.02
2022-12-11T11:53:31.484Z,73.84
2022-12-11T11:56:13.582Z,73.76
2022-12-11T11:58:49.918Z,75.15
2022-12-11T12:01:21.883Z,74.33
2022-12-11T12:03:51.453Z,73.02
2022-12-11T12:06:34.106Z,74.12
2022-12-11T12:09:17.917Z,72.88
2022-12-11T12:11:55.504Z,74.21
2022-12-11T12:17:31.502Z,75.41
2022-12-11T12:20:08.858Z,77.17
2022-12-11T12:22:59.264Z,76.16
2022-12-11T12:25:35.910Z,76.72
2022-12-11T12:28:23.306Z,75.90
2022-12-11T12:31:05.801Z,76.18
2022-12-11T12:33:44.413Z,75.47
2022-12-11T12:36:19.084Z,76.26
2022-12-11T12:38:54.942Z,76.63
2022-12-11T12:41:31.029Z,75.55
2022-12-11T12:44:16.494Z,75.30
2022-12-11T12:46:54.534Z,74.90
2022-12-11T12:49:31.857Z,74.31
2022-12-11T12:52:01.425Z,73.59
2022-12-11T12:54:33.060Z,73.10
2022-12-11T12:57:05.244Z,74.69
2022-12-11T12:59:33.728Z,74.11
2022-12-11T13:02:06.381Z,73.91
2022-12-11T13:04:58.178Z,73.02
2022-12-11T13:07:30.715Z,73.97
2022-12-11T13:10:05.159Z,74.64
2022-12-11T13:12:45.651Z,74.45
2022-12-11T13:15:35.610Z,73.52
2022-12-11T13:18:23.528Z,73.57
2022-12-11T13:20:53.268Z,73.37
2022-12-11T13:23:29.546Z,74.36
2022-12-11T13:26:00.557Z,74.03
2022-12-11T13:28:33.247Z,73.83
2022-12-11T13:31:24.075Z,73.37
2022-12-11T13:33:57.546Z,72.31
2022-12-11T13:36:32.593Z,72.83
2022-12-11T13:39:05.770Z,73.37
2022-12-11T13:41:38.211Z,73.84
2022-12-11T13:44:08.296Z,73.84
2022-12-11T13:46:38.894Z,75.38
2022-12-11T13:49:19.643Z,75.09
2022-12-11T13:51:54.239Z,75.50
2022-12-11T13:54:22.864Z,76.12
2022-12-11T13:57:03.295Z,74.87
2022-12-11T13:59:35.062Z,75.42
2022-12-11T14:02:16.212Z,76.19
2022-12-11T14:04:47.500Z,74.34
2022-12-11T14:07:21.319Z,74.28
2022-12-11T14:09:49.828Z,75.07
2022-12-11T14:12:20.936Z,74.28
2022-12-11T14:14:52.860Z,74.72
2022-12-11T14:17:26.543Z,75.17
2022-12-11T14:20:00.344Z,74.29
2022-12-11T14:22:31.271Z,74.27
2022-12-11T14:25:03.506Z,75.81
2022-12-11T14:27:32.623Z,76.86
2022-12-11T14:30:11.740Z,77.49
2022-12-11T14:32:44.543Z,76.40
2022-12-11T14:35:24.141Z,76.90
2022-12-11T14:37:53.533Z,76.28
2022-12-11T14:40:26.446Z,76.26
2022-12-11T14:43:00.496Z,76.59
2022-12-11T14:45:34.559Z,75.46
2022-12-11T14:48:11.685Z,75.94
2022-12-11T14:50:47.413Z,76.96
2022-12-11T14:53:20.609Z,77.13
2022-12-11T14:55:50.772Z,78.33
2022-12-11T14:58:22.696Z,77.95
2022-12-11T15:00:58.973Z,77.89
2022-12-11T15:03:33.471Z,78.61
2022-12-11T15:06:04.567Z,78.91
2022-12-11T15:08:35.187Z,78.46
2022-12-11T15:11:07.650Z,79.49
2022-12-11T15:13:38.904Z,78.88
2022-12-11T15:16:08.739Z,79.16
2022-12-11T15:18:38.885Z,79.10
2022-12-11T15:21:12.123Z,79.33
2022-12-11T15:23:51.249Z,79.30
2022-12-11T15:26:20.625Z,79.25
2022-12-11T15:28:49.282Z,79.16
2022-12-11T15:31:26.822Z,79.78
2022-12-11T15:33:56.077Z,78.74
2022-12-11T15:36:28.048Z,78.47
2022-12-11T15:38:56.785Z,77.94
2022-12-11T15:41:26.039Z,77.97
2022-12-11T15:43:59.213Z,78.22
2022-12-11T15:46:28.314Z,78.02
2022-12-11T15:48:57.690Z,78.79
2022-12-11T15:51:27.733Z,77.53
2022-12-11T15:53:56.280Z,77.66
2022-12-11T15:56:24.876Z,77.67
2022-12-11T15:58:53.448Z,77.34
2022-12-11T16:01:22.299Z,78.25
2022-12-11T16:03:51.333Z,77.62
2022-12-11T16:06:19.992Z,77.93
2022-12-11T16:08:50.195Z,77.32
2022-12-11T16:11:18.914Z,77.39
2022-12-11T16:13:47.703Z,77.41
2022-12-11T16:16:16.309Z,77.23
2022-12-11T16:18:45.140Z,77.15
2022-12-11T16:21:18.298Z,76.71
2022-12-11T16:23:51.259Z,76.98
2022-12-11T16:26:19.971Z,76.56
2022-12-11T16:28:54.772Z,75.06
2022-12-11T16:31:23.512Z,74.69
2022-12-11T16:33:52.214Z,75.54
2022-12-11T16:36:21.593Z,75.67
2022-12-11T16:38:54.513Z,75.42
2022-12-11T16:41:27.638Z,75.43
2022-12-11T16:43:56.132Z,74.43
2022-12-11T16:46:25.577Z,75.96
2022-12-11T16:48:54.326Z,73.48
2022-12-11T16:51:22.998Z,73.45
2022-12-11T16:53:52.858Z,72.55
2022-12-11T16:56:21.404Z,72.25
2022-12-11T16:58:49.891Z,72.38
2022-12-11T17:01:18.461Z,73.28
2022-12-11T17:03:47.078Z,75.56
2022-12-11T17:06:18.029Z,73.70
2022-12-11T17:08:47.295Z,75.11
2022-12-11T17:11:18.789Z,75.15
2022-12-11T17:13:47.536Z,75.41
2022-12-11T17:16:17.868Z,75.98
2022-12-11T17:18:46.270Z,75.76
2022-12-11T17:21:16.925Z,76.56
2022-12-11T17:23:46.203Z,75.86
2022-12-11T17:26:15.413Z,76.32
2022-12-11T17:28:45.763Z,76.28
2022-12-11T17:31:17.231Z,76.10
2022-12-11T17:33:46.842Z,76.53
2022-12-11T17:36:17.005Z,76.77
2022-12-11T17:38:45.728Z,76.24
2022-12-11T17:41:20.323Z,75.89
2022-12-11T17:43:51.902Z,76.61
2022-12-11T17:46:21.814Z,77.19
2022-12-11T17:48:50.386Z,77.38
2022-12-11T17:51:24.429Z,76.60
2022-12-11T17:53:56.391Z,76.20
2022-12-11T17:56:25.631Z,75.67
2022-12-11T17:58:55.576Z,76.55
2022-12-11T18:01:24.115Z,77.04
2022-12-11T18:03:52.603Z,76.97
2022-12-11T18:06:22.994Z,76.61
2022-12-11T18:08:51.360Z,76.91
2022-12-11T18:11:22.447Z,77.35
2022-12-11T18:13:53.072Z,78.07
2022-12-11T18:18:15.839Z,77.29
2022-12-11T18:20:49.414Z,77.04
2022-12-11T18:23:17.944Z,77.53
2022-12-11T18:25:47.323Z,76.60
2022-12-11T18:28:16.085Z,77.75
2022-12-11T18:30:44.714Z,78.34
2022-12-11T18:33:14.870Z,79.02
2022-12-11T18:35:43.363Z,78.43
2022-12-11T18:38:12.552Z,79.37
2022-12-11T18:40:41.188Z,78.86
2022-12-11T18:43:09.987Z,80.13
2022-12-11T18:45:40.464Z,80.70
2022-12-11T18:48:09.787Z,80.47
2022-12-11T18:50:44.278Z,80.42
2022-12-11T18:53:13.136Z,81.04
2022-12-11T18:55:45.920Z,81.04
2022-12-11T18:58:17.148Z,79.44
2022-12-11T19:00:47.285Z,80.75
2022-12-11T19:03:17.158Z,80.57
2022-12-11T19:05:47.187Z,80.28
2022-12-11T19:08:16.418Z,80.36
2022-12-11T19:10:46.572Z,80.37
2022-12-11T19:13:15.615Z,79.62
2022-12-11T19:15:45.532Z,80.47
2022-12-11T19:18:14.889Z,79.40
2022-12-11T19:20:49.443Z,79.47
2022-12-11T19:23:20.266Z,79.93
2022-12-11T19:25:49.344Z,81.12
2022-12-11T19:28:18.628Z,80.99
2022-12-11T19:30:49.003Z,80.98
2022-12-11T19:33:17.747Z,81.07
2022-12-11T19:35:46.310Z,80.55
2022-12-11T19:38:14.818Z,81.40
2022-12-11T19:40:45.639Z,81.09
2022-12-11T19:43:14.202Z,82.10
2022-12-11T19:45:42.709Z,82.77
2022-12-11T19:48:11.211Z,83.07
2022-12-11T19:50:39.711Z,82.69
2022-12-11T19:53:08.191Z,81.96
2022-12-11T19:55:36.673Z,82.26
2022-12-11T19:58:06.528Z,82.75
2022-12-11T20:00:38.318Z,82.85
2022-12-11T20:03:06.872Z,81.61
2022-12-11T20:05:35.513Z,82.83
2022-12-11T20:08:35.265Z,82.06
2022-12-11T20:10:52.707Z,81.67
2022-12-11T20:13:22.559Z,81.96
2022-12-11T20:15:51.709Z,82.83
2022-12-11T20:18:20.245Z,82.95
2022-12-11T20:20:48.792Z,81.95
2022-12-11T20:23:17.211Z,82.78
2022-12-11T20:25:45.862Z,82.67
2022-12-11T20:28:14.433Z,82.22
2022-12-11T20:30:44.399Z,82.67
2022-12-11T20:33:12.843Z,82.53
2022-12-11T20:35:41.634Z,81.74
2022-12-11T20:38:10.241Z,81.44
2022-12-11T20:40:39.036Z,82.05
2022-12-11T20:43:07.782Z,83.30
2022-12-11T20:45:36.277Z,82.26
2022-12-11T20:48:06.417Z,81.65
2022-12-11T20:50:34.981Z,81.71
2022-12-11T20:53:03.815Z,82.37
2022-12-11T20:55:32.390Z,83.18
2022-12-11T20:58:00.865Z,83.43
2022-12-11T21:00:29.423Z,82.22
2022-12-11T21:02:57.907Z,82.61
2022-12-11T21:05:28.931Z,83.02
2022-12-11T21:07:58.095Z,82.54
2022-12-11T21:10:26.626Z,82.05
2022-12-11T21:12:55.067Z,81.81
2022-12-11T21:15:23.592Z,81.34
2022-12-11T21:17:52.114Z,81.77
2022-12-11T21:20:21.202Z,80.62
2022-12-11T21:22:51.288Z,80.64
2022-12-11T21:25:20.191Z,81.35
2022-12-11T21:27:48.695Z,81.31
2022-12-11T21:30:17.535Z,80.46
2022-12-11T21:32:46.079Z,80.18
2022-12-11T21:35:15.142Z,80.53
2022-12-11T21:37:43.726Z,79.95
2022-12-11T21:40:14.604Z,80.00
2022-12-11T21:42:43.058Z,78.69
2022-12-11T21:45:52.194Z,79.13
2022-12-11T21:48:00.700Z,80.64
2022-12-11T21:50:29.286Z,79.00
2022-12-11T21:52:57.789Z,79.80
2022-12-11T21:55:27.658Z,79.82
2022-12-11T21:57:56.445Z,79.15
2022-12-11T22:00:25.169Z,79.84
2022-12-11T22:02:53.767Z,79.43
2022-12-11T22:05:22.508Z,78.83
2022-12-11T22:07:51.113Z,77.98
2022-12-11T22:10:19.636Z,78.06
2022-12-11T22:12:49.494Z,78.07
2022-12-11T22:15:18.011Z,78.16
2022-12-11T22:17:46.725Z,78.49
2022-12-11T22:20:15.211Z,77.41
2022-12-11T22:22:43.712Z,77.44
2022-12-11T22:25:12.452Z,76.58
2022-12-11T22:27:40.986Z,76.51
2022-12-11T22:30:12.290Z,77.31
2022-12-11T22:32:41.100Z,76.78
2022-12-11T22:35:11.430Z,76.89
2022-12-11T22:37:40.037Z,76.49
2022-12-11T22:40:09.792Z,76.46
2022-12-11T22:42:38.267Z,76.76
2022-12-11T22:45:07.836Z,77.90
2022-12-11T22:47:38.034Z,78.80
2022-12-11T22:50:07.765Z,79.54
2022-12-11T22:52:37.257Z,79.53
2022-12-11T22:55:06.765Z,79.82
2022-12-11T22:57:36.685Z,79.86
2022-12-11T23:00:07.540Z,80.83
2022-12-11T23:02:38.356Z,80.94
2022-12-11T23:05:07.911Z,80.69
2022-12-11T23:07:36.445Z,80.93
2022-12-11T23:10:06.007Z,80.55
2022-12-11T23:12:34.611Z,80.55
2022-12-11T23:15:03.146Z,80.85
2022-12-11T23:17:32.120Z,80.81
2022-12-11T23:20:03.886Z,81.43
2022-12-11T23:22:32.808Z,81.33
2022-12-11T23:25:01.572Z,81.09
2022-12-11T23:27:30.410Z,82.45
2022-12-11T23:29:59.576Z,81.12
2022-12-11T23:32:29.103Z,82.02
2022-12-11T23:34:57.535Z,81.99
2022-12-11T23:37:27.324Z,82.14
2022-12-11T23:39:55.856Z,80.95
2022-12-11T23:42:24.356Z,80.90
2022-12-11T23:44:52.922Z,81.42
2022-12-11T23:47:21.331Z,80.83
2022-12-11T23:49:49.912Z,81.42
2022-12-11T23:52:22.588Z,81.16
2022-12-11T23:54:55.288Z,80.88
2022-12-11T23:57:24.089Z,80.11
2022-12-11T23:59:52.597Z,80.04
